sensor_id;sensor_type;location;lat;lon;timestamp;P1;durP1;ratioP1;P2;durP2;ratioP2
15982;SDS011;14442;50.196;8.096;2023-03-01T00:00:51;2.30;;;2.10;;
15982;SDS011;14442;50.196;8.096;2023-03-01T00:03:18;2.67;;;2.40;;
15982;SDS011;14442;50.196;8.096;2023-03-01T00:05:45;3.23;;;2.53;;
15982;SDS011;14442;50.196;8.096;2023-03-01T00:08:13;2.50;;;2.30;;
15982;SDS011;14442;50.196;8.096;2023-03-01T00:10:39;2.83;;;2.07;;
15982;SDS011;14442;50.196;8.096;2023-03-01T00:13:06;3.43;;;2.23;;
15982;SDS011;14442;50.196;8.096;2023-03-01T00:15:33;2.20;;;1.90;;
15982;SDS011;14442;50.196;8.096;2023-03-01T00:18:03;2.00;;;1.90;;
15982;SDS011;14442;50.196;8.096;2023-03-01T00:20:30;2.07;;;1.87;;
15982;SDS011;14442;50.196;8.096;2023-03-01T00:22:56;2.27;;;1.80;;
15982;SDS011;14442;50.196;8.096;2023-03-01T00:25:24;1.80;;;1.70;;
15982;SDS011;14442;50.196;8.096;2023-03-01T00:27:51;3.03;;;2.30;;
15982;SDS011;14442;50.196;8.096;2023-03-01T00:30:18;2.00;;;1.90;;
15982;SDS011;14442;50.196;8.096;2023-03-01T00:32:44;1.70;;;1.60;;
15982;SDS011;14442;50.196;8.096;2023-03-01T00:35:11;2.00;;;1.90;;
15982;SDS011;14442;50.196;8.096;2023-03-01T00:37:38;1.73;;;1.63;;
15982;SDS011;14442;50.196;8.096;2023-03-01T00:40:07;2.77;;;2.00;;
15982;SDS011;14442;50.196;8.096;2023-03-01T00:42:36;2.10;;;2.00;;
15982;SDS011;14442;50.196;8.096;2023-03-01T00:45:03;1.87;;;1.77;;
15982;SDS011;14442;50.196;8.096;2023-03-01T00:47:32;2.30;;;2.10;;
15982;SDS011;14442;50.196;8.096;2023-03-01T00:49:59;2.20;;;2.07;;
15982;SDS011;14442;50.196;8.096;2023-03-01T00:52:26;2.50;;;2.30;;
15982;SDS011;14442;50.196;8.096;2023-03-01T00:54:53;2.37;;;2.17;;
15982;SDS011;14442;50.196;8.096;2023-03-01T00:57:19;2.40;;;2.20;;
15982;SDS011;14442;50.196;8.096;2023-03-01T00:59:47;2.30;;;2.10;;
15982;SDS011;14442;50.196;8.096;2023-03-01T01:02:14;2.20;;;2.00;;
15982;SDS011;14442;50.196;8.096;2023-03-01T01:04:41;2.77;;;2.47;;
15982;SDS011;14442;50.196;8.096;2023-03-01T01:07:08;2.73;;;2.40;;
15982;SDS011;14442;50.196;8.096;2023-03-01T01:09:34;2.37;;;2.17;;
15982;SDS011;14442;50.196;8.096;2023-03-01T01:12:01;2.03;;;1.93;;
15982;SDS011;14442;50.196;8.096;2023-03-01T01:14:28;2.30;;;2.07;;
15982;SDS011;14442;50.196;8.096;2023-03-01T01:16:56;1.90;;;1.80;;
15982;SDS011;14442;50.196;8.096;2023-03-01T01:19:23;2.37;;;2.17;;
15982;SDS011;14442;50.196;8.096;2023-03-01T01:21:50;2.90;;;2.30;;
15982;SDS011;14442;50.196;8.096;2023-03-01T01:24:17;2.03;;;1.93;;
15982;SDS011;14442;50.196;8.096;2023-03-01T01:26:44;2.10;;;2.00;;
15982;SDS011;14442;50.196;8.096;2023-03-01T01:29:12;2.10;;;2.00;;
15982;SDS011;14442;50.196;8.096;2023-03-01T01:31:39;2.07;;;1.80;;
15982;SDS011;14442;50.196;8.096;2023-03-01T01:34:12;2.20;;;2.00;;
15982;SDS011;14442;50.196;8.096;2023-03-01T01:36:40;2.17;;;1.93;;
15982;SDS011;14442;50.196;8.096;2023-03-01T01:39:07;1.90;;;1.80;;
15982;SDS011;14442;50.196;8.096;2023-03-01T01:41:38;1.93;;;1.83;;
15982;SDS011;14442;50.196;8.096;2023-03-01T01:44:10;2.17;;;1.80;;
15982;SDS011;14442;50.196;8.096;2023-03-01T01:46:43;1.97;;;1.87;;
15982;SDS011;14442;50.196;8.096;2023-03-01T01:49:17;1.70;;;1.60;;
15982;SDS011;14442;50.196;8.096;2023-03-01T01:51:51;1.90;;;1.80;;
15982;SDS011;14442;50.196;8.096;2023-03-01T01:54:24;1.90;;;1.80;;
15982;SDS011;14442;50.196;8.096;2023-03-01T01:56:55;1.77;;;1.67;;
15982;SDS011;14442;50.196;8.096;2023-03-01T01:59:25;1.80;;;1.33;;
15982;SDS011;14442;50.196;8.096;2023-03-01T02:01:54;1.60;;;1.50;;
15982;SDS011;14442;50.196;8.096;2023-03-01T02:04:25;1.70;;;1.60;;
15982;SDS011;14442;50.196;8.096;2023-03-01T02:06:53;1.70;;;1.60;;
15982;SDS011;14442;50.196;8.096;2023-03-01T02:09:24;2.17;;;1.97;;
15982;SDS011;14442;50.196;8.096;2023-03-01T02:11:52;1.57;;;1.47;;
15982;SDS011;14442;50.196;8.096;2023-03-01T02:14:20;1.67;;;1.57;;
15982;SDS011;14442;50.196;8.096;2023-03-01T02:16:46;1.50;;;1.40;;
15982;SDS011;14442;50.196;8.096;2023-03-01T02:19:19;1.77;;;1.67;;
15982;SDS011;14442;50.196;8.096;2023-03-01T02:21:56;1.57;;;1.47;;
15982;SDS011;14442;50.196;8.096;2023-03-01T02:24:31;1.53;;;1.43;;
15982;SDS011;14442;50.196;8.096;2023-03-01T02:27:08;1.90;;;1.80;;
15982;SDS011;14442;50.196;8.096;2023-03-01T02:29:37;1.67;;;1.57;;
15982;SDS011;14442;50.196;8.096;2023-03-01T02:32:04;2.13;;;1.73;;
15982;SDS011;14442;50.196;8.096;2023-03-01T02:34:31;1.50;;;1.40;;
15982;SDS011;14442;50.196;8.096;2023-03-01T02:37:00;1.63;;;1.53;;
15982;SDS011;14442;50.196;8.096;2023-03-01T02:39:37;2.00;;;1.60;;
15982;SDS011;14442;50.196;8.096;2023-03-01T02:42:07;1.77;;;1.67;;
15982;SDS011;14442;50.196;8.096;2023-03-01T02:44:39;1.77;;;1.67;;
15982;SDS011;14442;50.196;8.096;2023-03-01T02:47:06;1.50;;;1.40;;
15982;SDS011;14442;50.196;8.096;2023-03-01T02:49:33;1.73;;;1.60;;
15982;SDS011;14442;50.196;8.096;2023-03-01T02:52:07;1.13;;;1.13;;
15982;SDS011;14442;50.196;8.096;2023-03-01T02:54:59;1.80;;;1.70;;
15982;SDS011;14442;50.196;8.096;2023-03-01T02:57:28;1.60;;;1.50;;
15982;SDS011;14442;50.196;8.096;2023-03-01T02:59:59;1.77;;;1.67;;
15982;SDS011;14442;50.196;8.096;2023-03-01T03:02:32;1.50;;;1.40;;
15982;SDS011;14442;50.196;8.096;2023-03-01T03:05:06;1.80;;;1.70;;
15982;SDS011;14442;50.196;8.096;2023-03-01T03:07:35;1.37;;;1.30;;
15982;SDS011;14442;50.196;8.096;2023-03-01T03:10:04;1.30;;;1.30;;
15982;SDS011;14442;50.196;8.096;2023-03-01T03:12:32;1.40;;;1.30;;
15982;SDS011;14442;50.196;8.096;2023-03-01T03:15:00;1.60;;;1.50;;
15982;SDS011;14442;50.196;8.096;2023-03-01T03:17:33;1.80;;;1.70;;
15982;SDS011;14442;50.196;8.096;2023-03-01T03:20:00;1.50;;;1.40;;
15982;SDS011;14442;50.196;8.096;2023-03-01T03:22:28;1.73;;;1.63;;
15982;SDS011;14442;50.196;8.096;2023-03-01T03:24:54;1.83;;;1.50;;
15982;SDS011;14442;50.196;8.096;2023-03-01T03:27:21;1.70;;;1.60;;
15982;SDS011;14442;50.196;8.096;2023-03-01T03:29:48;1.50;;;1.40;;
15982;SDS011;14442;50.196;8.096;2023-03-01T03:32:16;1.40;;;1.30;;
15982;SDS011;14442;50.196;8.096;2023-03-01T03:34:42;1.67;;;1.60;;
15982;SDS011;14442;50.196;8.096;2023-03-01T03:37:09;2.87;;;1.60;;
15982;SDS011;14442;50.196;8.096;2023-03-01T03:39:56;1.50;;;1.40;;
15982;SDS011;14442;50.196;8.096;2023-03-01T03:42:23;1.90;;;1.80;;
15982;SDS011;14442;50.196;8.096;2023-03-01T03:44:49;1.70;;;1.60;;
15982;SDS011;14442;50.196;8.096;2023-03-01T03:47:17;1.50;;;1.40;;
15982;SDS011;14442;50.196;8.096;2023-03-01T03:49:44;1.70;;;1.60;;
15982;SDS011;14442;50.196;8.096;2023-03-01T03:52:11;1.40;;;1.40;;
15982;SDS011;14442;50.196;8.096;2023-03-01T03:54:38;1.57;;;1.47;;
15982;SDS011;14442;50.196;8.096;2023-03-01T03:57:05;1.50;;;1.40;;
15982;SDS011;14442;50.196;8.096;2023-03-01T03:59:31;1.50;;;1.40;;
15982;SDS011;14442;50.196;8.096;2023-03-01T04:01:58;1.50;;;1.40;;
15982;SDS011;14442;50.196;8.096;2023-03-01T04:04:26;1.53;;;1.47;;
15982;SDS011;14442;50.196;8.096;2023-03-01T04:06:53;1.40;;;1.30;;
15982;SDS011;14442;50.196;8.096;2023-03-01T04:09:19;1.63;;;1.53;;
15982;SDS011;14442;50.196;8.096;2023-03-01T04:11:46;1.83;;;1.73;;
15982;SDS011;14442;50.196;8.096;2023-03-01T04:14:13;1.60;;;1.50;;
15982;SDS011;14442;50.196;8.096;2023-03-01T04:16:39;1.43;;;1.33;;
15982;SDS011;14442;50.196;8.096;2023-03-01T04:19:06;1.43;;;1.33;;
15982;SDS011;14442;50.196;8.096;2023-03-01T04:21:35;1.60;;;1.50;;
15982;SDS011;14442;50.196;8.096;2023-03-01T04:24:02;1.70;;;1.60;;
15982;SDS011;14442;50.196;8.096;2023-03-01T04:26:29;1.80;;;1.70;;
15982;SDS011;14442;50.196;8.096;2023-03-01T04:28:56;1.30;;;1.20;;
15982;SDS011;14442;50.196;8.096;2023-03-01T04:31:23;1.50;;;1.40;;
15982;SDS011;14442;50.196;8.096;2023-03-01T04:33:50;1.50;;;1.40;;
15982;SDS011;14442;50.196;8.096;2023-03-01T04:36:19;1.70;;;1.60;;
15982;SDS011;14442;50.196;8.096;2023-03-01T04:38:48;1.20;;;1.20;;
15982;SDS011;14442;50.196;8.096;2023-03-01T04:41:16;1.63;;;1.50;;
15982;SDS011;14442;50.196;8.096;2023-03-01T04:43:45;1.37;;;1.27;;
15982;SDS011;14442;50.196;8.096;2023-03-01T04:46:12;1.93;;;1.40;;
15982;SDS011;14442;50.196;8.096;2023-03-01T04:48:43;1.60;;;1.50;;
15982;SDS011;14442;50.196;8.096;2023-03-01T04:51:11;1.27;;;1.17;;
15982;SDS011;14442;50.196;8.096;2023-03-01T04:53:39;3.47;;;1.17;;
15982;SDS011;14442;50.196;8.096;2023-03-01T04:56:07;1.70;;;1.60;;
15982;SDS011;14442;50.196;8.096;2023-03-01T04:58:34;2.77;;;1.77;;
15982;SDS011;14442;50.196;8.096;2023-03-01T05:01:01;2.93;;;1.70;;
15982;SDS011;14442;50.196;8.096;2023-03-01T05:03:40;4.73;;;1.80;;
15982;SDS011;14442;50.196;8.096;2023-03-01T05:06:08;3.40;;;2.43;;
15982;SDS011;14442;50.196;8.096;2023-03-01T05:08:35;3.23;;;2.73;;
15982;SDS011;14442;50.196;8.096;2023-03-01T05:11:02;4.33;;;3.23;;
15982;SDS011;14442;50.196;8.096;2023-03-01T05:13:31;3.90;;;2.53;;
15982;SDS011;14442;50.196;8.096;2023-03-01T05:15:59;3.13;;;2.77;;
15982;SDS011;14442;50.196;8.096;2023-03-01T05:18:27;3.70;;;3.23;;
15982;SDS011;14442;50.196;8.096;2023-03-01T05:20:55;3.00;;;2.73;;
15982;SDS011;14442;50.196;8.096;2023-03-01T05:23:28;4.53;;;3.00;;
15982;SDS011;14442;50.196;8.096;2023-03-01T05:25:57;2.60;;;2.40;;
15982;SDS011;14442;50.196;8.096;2023-03-01T05:28:24;4.03;;;3.13;;
15982;SDS011;14442;50.196;8.096;2023-03-01T05:30:54;4.03;;;3.03;;
15982;SDS011;14442;50.196;8.096;2023-03-01T05:33:22;5.10;;;3.30;;
15982;SDS011;14442;50.196;8.096;2023-03-01T05:35:49;3.83;;;3.43;;
15982;SDS011;14442;50.196;8.096;2023-03-01T05:38:18;5.53;;;3.63;;
15982;SDS011;14442;50.196;8.096;2023-03-01T05:40:45;4.63;;;3.67;;
15982;SDS011;14442;50.196;8.096;2023-03-01T05:43:14;4.80;;;3.70;;
15982;SDS011;14442;50.196;8.096;2023-03-01T05:45:43;5.70;;;3.87;;
15982;SDS011;14442;50.196;8.096;2023-03-01T05:48:11;4.63;;;3.63;;
15982;SDS011;14442;50.196;8.096;2023-03-01T05:50:39;3.97;;;3.57;;
15982;SDS011;14442;50.196;8.096;2023-03-01T05:53:07;4.33;;;3.93;;
15982;SDS011;14442;50.196;8.096;2023-03-01T05:55:37;3.97;;;3.60;;
15982;SDS011;14442;50.196;8.096;2023-03-01T05:58:04;4.73;;;4.23;;
15982;SDS011;14442;50.196;8.096;2023-03-01T06:00:33;4.40;;;4.00;;
15982;SDS011;14442;50.196;8.096;2023-03-01T06:03:00;4.53;;;3.60;;
15982;SDS011;14442;50.196;8.096;2023-03-01T06:05:28;4.90;;;3.90;;
15982;SDS011;14442;50.196;8.096;2023-03-01T06:07:58;4.07;;;3.67;;
15982;SDS011;14442;50.196;8.096;2023-03-01T06:10:25;5.17;;;3.63;;
15982;SDS011;14442;50.196;8.096;2023-03-01T06:12:52;4.33;;;3.43;;
15982;SDS011;14442;50.196;8.096;2023-03-01T06:15:19;4.00;;;3.57;;
15982;SDS011;14442;50.196;8.096;2023-03-01T06:17:46;3.90;;;3.50;;
15982;SDS011;14442;50.196;8.096;2023-03-01T06:20:14;4.57;;;3.80;;
15982;SDS011;14442;50.196;8.096;2023-03-01T06:22:44;3.70;;;3.37;;
15982;SDS011;14442;50.196;8.096;2023-03-01T06:25:12;3.57;;;3.27;;
15982;SDS011;14442;50.196;8.096;2023-03-01T06:27:39;3.23;;;2.93;;
15982;SDS011;14442;50.196;8.096;2023-03-01T06:30:11;2.90;;;2.60;;
15982;SDS011;14442;50.196;8.096;2023-03-01T06:32:39;3.17;;;2.87;;
15982;SDS011;14442;50.196;8.096;2023-03-01T06:35:08;3.00;;;2.70;;
15982;SDS011;14442;50.196;8.096;2023-03-01T06:37:35;2.87;;;2.67;;
15982;SDS011;14442;50.196;8.096;2023-03-01T06:40:04;2.23;;;2.13;;
15982;SDS011;14442;50.196;8.096;2023-03-01T06:42:33;2.97;;;2.77;;
15982;SDS011;14442;50.196;8.096;2023-03-01T06:45:00;2.50;;;2.30;;
15982;SDS011;14442;50.196;8.096;2023-03-01T06:47:26;3.07;;;2.40;;
15982;SDS011;14442;50.196;8.096;2023-03-01T06:49:53;2.47;;;2.27;;
15982;SDS011;14442;50.196;8.096;2023-03-01T06:52:19;2.70;;;2.50;;
15982;SDS011;14442;50.196;8.096;2023-03-01T06:54:46;2.33;;;2.13;;
15982;SDS011;14442;50.196;8.096;2023-03-01T06:57:14;3.20;;;2.90;;
15982;SDS011;14442;50.196;8.096;2023-03-01T06:59:41;3.10;;;2.80;;
15982;SDS011;14442;50.196;8.096;2023-03-01T07:02:09;3.30;;;3.00;;
15982;SDS011;14442;50.196;8.096;2023-03-01T07:04:36;3.10;;;2.90;;
15982;SDS011;14442;50.196;8.096;2023-03-01T07:07:04;4.77;;;4.20;;
15982;SDS011;14442;50.196;8.096;2023-03-01T07:09:30;5.27;;;4.57;;
15982;SDS011;14442;50.196;8.096;2023-03-01T07:11:57;5.67;;;4.90;;
15982;SDS011;14442;50.196;8.096;2023-03-01T07:14:25;6.80;;;5.63;;
15982;SDS011;14442;50.196;8.096;2023-03-01T07:16:52;9.00;;;6.30;;
15982;SDS011;14442;50.196;8.096;2023-03-01T07:19:20;7.60;;;6.80;;
15982;SDS011;14442;50.196;8.096;2023-03-01T07:21:47;10.10;;;7.10;;
15982;SDS011;14442;50.196;8.096;2023-03-01T07:24:14;10.20;;;6.80;;
15982;SDS011;14442;50.196;8.096;2023-03-01T07:26:41;8.10;;;6.37;;
15982;SDS011;14442;50.196;8.096;2023-03-01T07:29:07;8.93;;;6.57;;
15982;SDS011;14442;50.196;8.096;2023-03-01T07:31:37;8.80;;;6.50;;
15982;SDS011;14442;50.196;8.096;2023-03-01T07:34:04;8.43;;;6.80;;
15982;SDS011;14442;50.196;8.096;2023-03-01T07:36:30;7.70;;;6.43;;
15982;SDS011;14442;50.196;8.096;2023-03-01T07:38:57;9.33;;;6.80;;
15982;SDS011;14442;50.196;8.096;2023-03-01T07:41:27;7.23;;;6.53;;
15982;SDS011;14442;50.196;8.096;2023-03-01T07:43:53;8.90;;;6.67;;
15982;SDS011;14442;50.196;8.096;2023-03-01T07:46:20;7.63;;;5.87;;
15982;SDS011;14442;50.196;8.096;2023-03-01T07:48:48;5.97;;;5.30;;
15982;SDS011;14442;50.196;8.096;2023-03-01T07:51:15;8.07;;;5.80;;
15982;SDS011;14442;50.196;8.096;2023-03-01T07:53:42;7.13;;;5.67;;
15982;SDS011;14442;50.196;8.096;2023-03-01T07:56:12;6.77;;;5.60;;
15982;SDS011;14442;50.196;8.096;2023-03-01T07:58:39;6.63;;;5.23;;
15982;SDS011;14442;50.196;8.096;2023-03-01T08:01:08;12.23;;;4.97;;
15982;SDS011;14442;50.196;8.096;2023-03-01T08:03:36;8.70;;;5.30;;
15982;SDS011;14442;50.196;8.096;2023-03-01T08:06:05;6.77;;;5.37;;
15982;SDS011;14442;50.196;8.096;2023-03-01T08:08:33;6.20;;;4.30;;
15982;SDS011;14442;50.196;8.096;2023-03-01T08:11:01;7.60;;;5.37;;
15982;SDS011;14442;50.196;8.096;2023-03-01T08:13:29;8.33;;;4.97;;
15982;SDS011;14442;50.196;8.096;2023-03-01T08:16:00;6.20;;;4.80;;
15982;SDS011;14442;50.196;8.096;2023-03-01T08:18:27;6.80;;;5.20;;
15982;SDS011;14442;50.196;8.096;2023-03-01T08:20:54;6.93;;;5.23;;
15982;SDS011;14442;50.196;8.096;2023-03-01T08:23:22;5.97;;;5.03;;
15982;SDS011;14442;50.196;8.096;2023-03-01T08:25:49;5.43;;;4.80;;
15982;SDS011;14442;50.196;8.096;2023-03-01T08:28:16;4.60;;;4.07;;
15982;SDS011;14442;50.196;8.096;2023-03-01T08:30:42;5.40;;;4.30;;
15982;SDS011;14442;50.196;8.096;2023-03-01T08:33:09;6.93;;;4.27;;
15982;SDS011;14442;50.196;8.096;2023-03-01T08:35:36;5.47;;;4.27;;
15982;SDS011;14442;50.196;8.096;2023-03-01T08:38:02;6.27;;;4.50;;
15982;SDS011;14442;50.196;8.096;2023-03-01T08:40:30;5.13;;;4.63;;
15982;SDS011;14442;50.196;8.096;2023-03-01T08:42:57;4.57;;;3.87;;
15982;SDS011;14442;50.196;8.096;2023-03-01T08:45:24;5.07;;;3.70;;
15982;SDS011;14442;50.196;8.096;2023-03-01T08:47:51;5.80;;;4.20;;
15982;SDS011;14442;50.196;8.096;2023-03-01T08:50:18;4.40;;;3.67;;
15982;SDS011;14442;50.196;8.096;2023-03-01T08:52:45;4.83;;;3.30;;
15982;SDS011;14442;50.196;8.096;2023-03-01T08:55:11;4.07;;;3.63;;
15982;SDS011;14442;50.196;8.096;2023-03-01T08:57:41;4.67;;;4.17;;
15982;SDS011;14442;50.196;8.096;2023-03-01T09:00:08;3.43;;;3.13;;
15982;SDS011;14442;50.196;8.096;2023-03-01T09:02:36;4.00;;;3.47;;
15982;SDS011;14442;50.196;8.096;2023-03-01T09:05:03;3.43;;;3.07;;
15982;SDS011;14442;50.196;8.096;2023-03-01T09:07:30;4.70;;;3.20;;
15982;SDS011;14442;50.196;8.096;2023-03-01T09:09:57;3.40;;;3.07;;
15982;SDS011;14442;50.196;8.096;2023-03-01T09:12:24;3.87;;;3.27;;
15982;SDS011;14442;50.196;8.096;2023-03-01T09:14:52;3.20;;;2.83;;
15982;SDS011;14442;50.196;8.096;2023-03-01T09:17:18;3.20;;;2.90;;
15982;SDS011;14442;50.196;8.096;2023-03-01T09:19:46;5.23;;;3.23;;
15982;SDS011;14442;50.196;8.096;2023-03-01T09:22:13;6.78;;;3.58;;
15982;SDS011;14442;50.196;8.096;2023-03-01T09:24:40;17.13;;;11.23;;
15982;SDS011;14442;50.196;8.096;2023-03-01T09:27:07;29.77;;;13.13;;
15982;SDS011;14442;50.196;8.096;2023-03-01T09:29:34;17.90;;;11.73;;
15982;SDS011;14442;50.196;8.096;2023-03-01T09:32:04;61.17;;;34.23;;
15982;SDS011;14442;50.196;8.096;2023-03-01T09:34:33;26.83;;;15.23;;
15982;SDS011;14442;50.196;8.096;2023-03-01T09:37:19;16.47;;;9.70;;
15982;SDS011;14442;50.196;8.096;2023-03-01T09:39:46;14.70;;;9.23;;
15982;SDS011;14442;50.196;8.096;2023-03-01T09:42:13;11.77;;;7.73;;
15982;SDS011;14442;50.196;8.096;2023-03-01T09:44:42;10.10;;;6.93;;
15982;SDS011;14442;50.196;8.096;2023-03-01T09:47:17;9.30;;;6.07;;
15982;SDS011;14442;50.196;8.096;2023-03-01T09:49:45;8.77;;;5.80;;
15982;SDS011;14442;50.196;8.096;2023-03-01T09:52:26;6.83;;;5.00;;
15982;SDS011;14442;50.196;8.096;2023-03-01T09:54:59;6.40;;;5.03;;
15982;SDS011;14442;50.196;8.096;2023-03-01T09:57:28;9.07;;;4.97;;
15982;SDS011;14442;50.196;8.096;2023-03-01T10:00:07;6.03;;;4.60;;
15982;SDS011;14442;50.196;8.096;2023-03-01T10:02:45;7.20;;;4.37;;
15982;SDS011;14442;50.196;8.096;2023-03-01T10:05:32;7.00;;;4.00;;
15982;SDS011;14442;50.196;8.096;2023-03-01T10:08:24;4.40;;;3.97;;
15982;SDS011;14442;50.196;8.096;2023-03-01T10:10:56;5.47;;;3.60;;
15982;SDS011;14442;50.196;8.096;2023-03-01T10:13:25;4.20;;;3.57;;
15982;SDS011;14442;50.196;8.096;2023-03-01T10:16:00;6.27;;;3.70;;
15982;SDS011;14442;50.196;8.096;2023-03-01T10:18:32;4.87;;;3.83;;
15982;SDS011;14442;50.196;8.096;2023-03-01T10:21:02;6.60;;;3.10;;
15982;SDS011;14442;50.196;8.096;2023-03-01T10:23:35;5.80;;;3.00;;
15982;SDS011;14442;50.196;8.096;2023-03-01T10:29:02;5.53;;;3.03;;
15982;SDS011;14442;50.196;8.096;2023-03-01T10:31:34;9.87;;;2.87;;
15982;SDS011;14442;50.196;8.096;2023-03-01T10:34:09;3.53;;;3.20;;
15982;SDS011;14442;50.196;8.096;2023-03-01T10:36:36;3.37;;;2.80;;
15982;SDS011;14442;50.196;8.096;2023-03-01T10:39:06;3.20;;;2.77;;
15982;SDS011;14442;50.196;8.096;2023-03-01T10:41:40;3.20;;;2.73;;
15982;SDS011;14442;50.196;8.096;2023-03-01T10:44:43;3.57;;;2.87;;
15982;SDS011;14442;50.196;8.096;2023-03-01T10:47:15;6.47;;;3.23;;
15982;SDS011;14442;50.196;8.096;2023-03-01T10:49:53;3.13;;;2.63;;
15982;SDS011;14442;50.196;8.096;2023-03-01T10:52:26;4.80;;;2.63;;
15982;SDS011;14442;50.196;8.096;2023-03-01T10:54:55;6.00;;;3.10;;
15982;SDS011;14442;50.196;8.096;2023-03-01T10:57:34;4.87;;;2.80;;
15982;SDS011;14442;50.196;8.096;2023-03-01T11:03:10;4.00;;;2.77;;
15982;SDS011;14442;50.196;8.096;2023-03-01T11:05:50;4.13;;;2.77;;
15982;SDS011;14442;50.196;8.096;2023-03-01T11:08:30;6.97;;;2.50;;
15982;SDS011;14442;50.196;8.096;2023-03-01T11:11:06;2.50;;;2.30;;
15982;SDS011;14442;50.196;8.096;2023-03-01T11:13:52;3.47;;;2.13;;
15982;SDS011;14442;50.196;8.096;2023-03-01T11:16:24;3.10;;;2.33;;
15982;SDS011;14442;50.196;8.096;2023-03-01T11:19:01;2.27;;;2.07;;
15982;SDS011;14442;50.196;8.096;2023-03-01T11:21:41;6.23;;;2.93;;
15982;SDS011;14442;50.196;8.096;2023-03-01T11:24:15;3.10;;;2.80;;
15982;SDS011;14442;50.196;8.096;2023-03-01T11:26:44;3.77;;;2.80;;
15982;SDS011;14442;50.196;8.096;2023-03-01T11:29:16;3.70;;;2.90;;
15982;SDS011;14442;50.196;8.096;2023-03-01T11:31:51;3.30;;;2.30;;
15982;SDS011;14442;50.196;8.096;2023-03-01T11:34:19;3.00;;;2.40;;
15982;SDS011;14442;50.196;8.096;2023-03-01T11:36:54;3.20;;;2.50;;
15982;SDS011;14442;50.196;8.096;2023-03-01T11:39:26;4.53;;;2.37;;
15982;SDS011;14442;50.196;8.096;2023-03-01T11:42:00;3.17;;;2.47;;
15982;SDS011;14442;50.196;8.096;2023-03-01T11:44:33;5.00;;;2.20;;
15982;SDS011;14442;50.196;8.096;2023-03-01T11:47:07;3.33;;;2.73;;
15982;SDS011;14442;50.196;8.096;2023-03-01T11:50:00;5.30;;;2.53;;
15982;SDS011;14442;50.196;8.096;2023-03-01T11:52:39;6.47;;;2.30;;
15982;SDS011;14442;50.196;8.096;2023-03-01T11:55:17;4.77;;;3.13;;
15982;SDS011;14442;50.196;8.096;2023-03-01T12:00:43;2.10;;;1.90;;
15982;SDS011;14442;50.196;8.096;2023-03-01T12:03:30;3.37;;;2.53;;
15982;SDS011;14442;50.196;8.096;2023-03-01T12:06:18;7.40;;;2.33;;
15982;SDS011;14442;50.196;8.096;2023-03-01T12:08:59;5.77;;;2.60;;
15982;SDS011;14442;50.196;8.096;2023-03-01T12:11:39;5.17;;;2.93;;
15982;SDS011;14442;50.196;8.096;2023-03-01T12:14:25;3.13;;;2.43;;
15982;SDS011;14442;50.196;8.096;2023-03-01T12:17:08;2.97;;;2.50;;
15982;SDS011;14442;50.196;8.096;2023-03-01T12:19:53;5.17;;;2.13;;
15982;SDS011;14442;50.196;8.096;2023-03-01T12:22:35;2.30;;;2.10;;
15982;SDS011;14442;50.196;8.096;2023-03-01T12:25:20;2.77;;;2.23;;
15982;SDS011;14442;50.196;8.096;2023-03-01T12:27:55;2.30;;;1.93;;
15982;SDS011;14442;50.196;8.096;2023-03-01T12:30:39;2.83;;;2.20;;
15982;SDS011;14442;50.196;8.096;2023-03-01T12:33:20;2.40;;;2.07;;
15982;SDS011;14442;50.196;8.096;2023-03-01T12:36:07;4.03;;;2.00;;
15982;SDS011;14442;50.196;8.096;2023-03-01T12:38:46;5.03;;;2.13;;
15982;SDS011;14442;50.196;8.096;2023-03-01T12:44:15;2.87;;;1.80;;
15982;SDS011;14442;50.196;8.096;2023-03-01T12:46:59;6.10;;;2.50;;
15982;SDS011;14442;50.196;8.096;2023-03-01T12:49:45;7.47;;;2.00;;
15982;SDS011;14442;50.196;8.096;2023-03-01T12:52:16;4.37;;;2.10;;
15982;SDS011;14442;50.196;8.096;2023-03-01T12:54:49;3.33;;;2.10;;
15982;SDS011;14442;50.196;8.096;2023-03-01T12:57:26;7.43;;;2.00;;
15982;SDS011;14442;50.196;8.096;2023-03-01T13:00:04;2.63;;;1.77;;
15982;SDS011;14442;50.196;8.096;2023-03-01T13:02:47;2.90;;;1.97;;
15982;SDS011;14442;50.196;8.096;2023-03-01T13:05:24;2.60;;;2.13;;
15982;SDS011;14442;50.196;8.096;2023-03-01T13:08:01;1.80;;;1.63;;
15982;SDS011;14442;50.196;8.096;2023-03-01T13:10:39;2.90;;;1.63;;
15982;SDS011;14442;50.196;8.096;2023-03-01T13:13:15;2.60;;;1.70;;
15982;SDS011;14442;50.196;8.096;2023-03-01T13:15:46;4.43;;;1.70;;
15982;SDS011;14442;50.196;8.096;2023-03-01T13:18:27;1.87;;;1.73;;
15982;SDS011;14442;50.196;8.096;2023-03-01T13:20:57;3.33;;;2.03;;
15982;SDS011;14442;50.196;8.096;2023-03-01T13:23:26;5.17;;;1.77;;
15982;SDS011;14442;50.196;8.096;2023-03-01T13:26:06;3.23;;;1.67;;
15982;SDS011;14442;50.196;8.096;2023-03-01T13:28:40;2.17;;;1.67;;
15982;SDS011;14442;50.196;8.096;2023-03-01T13:34:45;2.40;;;1.77;;
15982;SDS011;14442;50.196;8.096;2023-03-01T13:37:26;4.50;;;1.73;;
15982;SDS011;14442;50.196;8.096;2023-03-01T13:39:58;2.40;;;1.30;;
15982;SDS011;14442;50.196;8.096;2023-03-01T13:42:33;1.50;;;1.40;;
15982;SDS011;14442;50.196;8.096;2023-03-01T13:45:12;2.20;;;1.30;;
15982;SDS011;14442;50.196;8.096;2023-03-01T13:47:55;2.03;;;1.60;;
15982;SDS011;14442;50.196;8.096;2023-03-01T13:50:27;2.43;;;1.47;;
15982;SDS011;14442;50.196;8.096;2023-03-01T13:52:56;3.47;;;1.40;;
15982;SDS011;14442;50.196;8.096;2023-03-01T13:55:27;2.80;;;1.53;;
15982;SDS011;14442;50.196;8.096;2023-03-01T13:58:03;1.40;;;1.23;;
15982;SDS011;14442;50.196;8.096;2023-03-01T14:00:42;1.63;;;1.50;;
15982;SDS011;14442;50.196;8.096;2023-03-01T14:03:10;1.70;;;1.20;;
15982;SDS011;14442;50.196;8.096;2023-03-01T14:05:38;2.37;;;1.43;;
15982;SDS011;14442;50.196;8.096;2023-03-01T14:08:18;2.40;;;1.57;;
15982;SDS011;14442;50.196;8.096;2023-03-01T14:10:49;1.43;;;1.33;;
15982;SDS011;14442;50.196;8.096;2023-03-01T14:13:36;1.07;;;0.97;;
15982;SDS011;14442;50.196;8.096;2023-03-01T14:16:19;2.03;;;1.20;;
15982;SDS011;14442;50.196;8.096;2023-03-01T14:18:56;2.43;;;1.23;;
15982;SDS011;14442;50.196;8.096;2023-03-01T14:21:35;1.90;;;1.30;;
15982;SDS011;14442;50.196;8.096;2023-03-01T14:24:02;3.10;;;1.50;;
15982;SDS011;14442;50.196;8.096;2023-03-01T14:26:29;3.73;;;1.37;;
15982;SDS011;14442;50.196;8.096;2023-03-01T14:28:58;2.07;;;1.17;;
15982;SDS011;14442;50.196;8.096;2023-03-01T14:34:16;1.97;;;1.07;;
15982;SDS011;14442;50.196;8.096;2023-03-01T14:36:46;1.50;;;1.40;;
15982;SDS011;14442;50.196;8.096;2023-03-01T14:39:16;1.63;;;1.37;;
15982;SDS011;14442;50.196;8.096;2023-03-01T14:41:44;1.20;;;1.10;;
15982;SDS011;14442;50.196;8.096;2023-03-01T14:44:12;1.23;;;1.00;;
15982;SDS011;14442;50.196;8.096;2023-03-01T14:46:43;1.73;;;1.40;;
15982;SDS011;14442;50.196;8.096;2023-03-01T14:49:13;3.00;;;1.40;;
15982;SDS011;14442;50.196;8.096;2023-03-01T14:51:42;1.47;;;1.07;;
15982;SDS011;14442;50.196;8.096;2023-03-01T14:54:19;2.27;;;1.27;;
15982;SDS011;14442;50.196;8.096;2023-03-01T14:56:49;3.33;;;1.47;;
15982;SDS011;14442;50.196;8.096;2023-03-01T14:59:19;3.17;;;1.67;;
15982;SDS011;14442;50.196;8.096;2023-03-01T15:01:48;2.50;;;1.20;;
15982;SDS011;14442;50.196;8.096;2023-03-01T15:04:17;3.33;;;1.40;;
15982;SDS011;14442;50.196;8.096;2023-03-01T15:06:45;1.77;;;1.10;;
15982;SDS011;14442;50.196;8.096;2023-03-01T15:09:13;1.83;;;1.10;;
15982;SDS011;14442;50.196;8.096;2023-03-01T15:11:42;1.70;;;1.20;;
15982;SDS011;14442;50.196;8.096;2023-03-01T15:14:25;2.00;;;1.70;;
15982;SDS011;14442;50.196;8.096;2023-03-01T15:16:53;1.73;;;1.40;;
15982;SDS011;14442;50.196;8.096;2023-03-01T15:19:21;1.63;;;1.50;;
15982;SDS011;14442;50.196;8.096;2023-03-01T15:21:53;3.43;;;1.50;;
15982;SDS011;14442;50.196;8.096;2023-03-01T15:24:23;2.97;;;1.20;;
15982;SDS011;14442;50.196;8.096;2023-03-01T15:26:53;2.87;;;1.53;;